createdAt,value
2022-11-05T00:02:55.496Z,12.70
2022-11-05T00:13:17.812Z,12.61
2022-11-05T00:23:37.715Z,12.62
2022-11-05T00:33:41.232Z,12.44
2022-11-05T00:44:01.460Z,12.42
2022-11-05T00:54:03.140Z,12.45
2022-11-05T01:04:04.801Z,12.48
2022-11-05T01:14:08.987Z,12.72
2022-11-05T01:24:10.903Z,12.61
2022-11-05T01:34:12.521Z,12.42
2022-11-05T01:44:51.318Z,12.43
2022-11-05T01:54:53.140Z,12.71
2022-11-05T02:05:00.157Z,12.75
2022-11-05T02:15:01.692Z,12.43
2022-11-05T02:25:42.257Z,12.74
2022-11-05T02:36:11.604Z,12.50
2022-11-05T02:46:31.930Z,12.51
2022-11-05T02:56:37.992Z,12.38
2022-11-05T03:06:48.768Z,12.19
2022-11-05T03:17:03.553Z,12.29
2022-11-05T03:27:09.630Z,12.50
2022-11-05T03:37:11.845Z,12.53
2022-11-05T03:47:18.783Z,12.61
2022-11-05T03:57:32.889Z,12.60
2022-11-05T04:07:52.917Z,12.65
2022-11-05T04:17:55.480Z,12.66
2022-11-05T04:28:00.653Z,12.74
2022-11-05T04:38:03.606Z,12.54
2022-11-05T04:48:05.375Z,12.50
2022-11-05T04:58:06.800Z,12.50
2022-11-05T05:08:08.302Z,12.56
2022-11-05T05:18:09.755Z,12.55
2022-11-05T05:28:11.191Z,12.49
2022-11-05T05:38:12.643Z,12.44
2022-11-05T05:48:14.125Z,12.64
2022-11-05T05:58:15.603Z,12.56
2022-11-05T06:08:17.158Z,12.54
2022-11-05T06:18:18.782Z,12.60
2022-11-05T06:28:20.241Z,12.41
2022-11-05T06:38:21.685Z,12.44
2022-11-05T06:48:25.231Z,12.68
2022-11-05T06:58:27.278Z,13.07
2022-11-05T07:08:36.299Z,13.52
2022-11-05T07:18:37.792Z,13.82
2022-11-05T07:28:39.344Z,14.03
2022-11-05T07:38:40.796Z,14.23
2022-11-05T07:48:42.296Z,14.43
2022-11-05T07:58:44.062Z,14.61
2022-11-05T08:08:45.558Z,15.15
2022-11-05T08:18:48.264Z,14.73
2022-11-05T08:28:49.741Z,15.05
2022-11-05T08:38:51.597Z,15.60
2022-11-05T08:48:53.186Z,16.25
2022-11-05T08:58:54.727Z,16.63
2022-11-05T09:08:56.198Z,16.76
2022-11-05T09:18:57.657Z,16.69
2022-11-05T09:28:59.115Z,16.86
2022-11-05T09:39:00.926Z,20.20
2022-11-05T09:49:07.306Z,25.42
2022-11-05T09:59:21.433Z,25.41
2022-11-05T10:09:31.320Z,22.38
2022-11-05T10:19:44.396Z,19.82
2022-11-05T10:29:46.866Z,18.77
2022-11-05T10:39:48.889Z,18.60
2022-11-05T10:50:00.409Z,18.69
2022-11-05T11:00:14.766Z,17.78
2022-11-05T11:10:22.159Z,18.04
2022-11-05T11:20:29.525Z,18.60
2022-11-05T11:30:31.905Z,18.71
2022-11-05T11:40:37.133Z,18.49
2022-11-05T11:50:44.229Z,17.28
2022-11-05T12:00:52.230Z,16.42
2022-11-05T12:10:57.225Z,17.11
2022-11-05T12:21:52.205Z,17.25
2022-11-05T12:32:16.035Z,18.29
2022-11-05T12:42:26.728Z,19.47
2022-11-05T12:52:57.649Z,19.87
2022-11-05T13:03:25.486Z,19.16
2022-11-05T13:13:40.808Z,18.03
2022-11-05T13:23:54.791Z,18.00
2022-11-05T13:33:57.088Z,17.62
2022-11-05T13:44:15.157Z,17.24
2022-11-05T13:54:35.301Z,17.14
2022-11-05T14:04:45.889Z,16.60
2022-11-05T14:14:58.498Z,15.86
2022-11-05T14:25:19.367Z,15.43
2022-11-05T14:35:20.776Z,14.96
2022-11-05T14:45:36.097Z,15.30
2022-11-05T14:55:41.773Z,15.05
2022-11-05T15:05:53.201Z,15.13
2022-11-05T15:15:54.711Z,15.18
2022-11-05T15:26:46.665Z,14.94
2022-11-05T15:36:54.463Z,14.87
2022-11-05T15:47:17.049Z,14.62
2022-11-05T15:57:28.863Z,14.34
2022-11-05T16:07:31.415Z,14.24
2022-11-05T16:17:59.716Z,13.96
2022-11-05T16:28:01.747Z,13.77
2022-11-05T16:38:03.486Z,13.72
2022-11-05T16:48:05.079Z,13.70
2022-11-05T16:58:15.133Z,13.59
2022-11-05T17:08:16.686Z,13.62
2022-11-05T17:18:19.587Z,13.70
2022-11-05T17:28:21.592Z,13.71
2022-11-05T17:38:25.115Z,13.81
2022-11-05T17:48:26.625Z,13.85
2022-11-05T17:58:28.125Z,13.77
2022-11-05T18:08:29.802Z,13.67
2022-11-05T18:18:31.302Z,13.66
2022-11-05T18:28:33.799Z,13.76
2022-11-05T18:38:35.298Z,13.62
2022-11-05T18:48:37.393Z,13.48
2022-11-05T18:58:38.951Z,13.21
2022-11-05T19:08:40.754Z,13.29
2022-11-05T19:18:42.633Z,13.22
2022-11-05T19:28:46.271Z,12.90
2022-11-05T19:38:49.656Z,12.67
2022-11-05T19:48:51.649Z,12.54
2022-11-05T19:58:54.152Z,12.45
2022-11-05T20:19:23.251Z,12.23
2022-11-05T20:29:30.569Z,11.82
2022-11-05T20:39:36.970Z,11.47
2022-11-05T20:49:38.412Z,11.15
2022-11-05T20:59:39.868Z,11.01
2022-11-05T21:09:41.381Z,10.85
2022-11-05T21:19:42.970Z,10.73
2022-11-05T21:29:44.949Z,10.59
2022-11-05T21:39:46.641Z,10.46
2022-11-05T21:49:48.102Z,10.37
2022-11-05T21:59:51.631Z,10.20
2022-11-05T22:09:53.572Z,10.15
2022-11-05T22:19:55.791Z,10.02
2022-11-05T22:29:57.246Z,9.86
2022-11-05T22:39:59.861Z,9.82
2022-11-05T22:50:01.496Z,9.77
2022-11-05T23:00:12.457Z,9.63
2022-11-05T23:10:32.537Z,9.58
2022-11-05T23:21:12.315Z,9.63
2022-11-05T23:31:32.233Z,9.41
2022-11-05T23:41:52.195Z,9.33
2022-11-05T23:51:53.643Z,9.32
